PBI weather

Palm Beach International Airport
West Palm Beach, Florida, United States

Public forecast

Using degrees Fahrenheit for public forecast. Weather courtesy of forecast.io.

METAR (pilot weather report)

Report is more than 2 hours old.

Retrieved 2019/05/23 23:53 UTC (3 hours ago):

KPBI 232353Z 07014KT 10SM SCT032 27/17 A3012 RMK AO2 SLP198 6//// T02670172 10306 20261 53002

TAF (pilot weather forecast)

Forecast is more than 12 hours old.

Retrieved 2019/05/23 00:54 UTC (1 day ago):

TAF KPBI 232346Z 2400/2424 06015KT P6SM SCT035 BKN040 FM240200 09012KT P6SM SCT030 FM241400 06015KT P6SM SCT035